Time;durP1;ratioP1;P1;durP2;ratioP2;P2;SDS_P1;SDS_P2;PMS_P1;PMS_P2;Temp;Humidity;BMP_temperature;BMP_pressure;BME280_temperature;BME280_humidity;BME280_pressure;Samples;Min_cycle;Max_cycle;Signal;HPM_P1;HPM_P2
2022/12/23 00:03:15;;;;;;;16.48;9.95;;;;;;;5.49;100.00;99594.08;5037696;57;1141027;-75
2022/12/23 00:08:22;;;;;;;15.83;11.33;;;;;;;5.44;100.00;99589.16;5037699;57;1138679;-74
2022/12/23 00:18:53;;;;;;;14.50;9.40;;;;;;;5.47;100.00;99601.21;5037862;56;1139280;-72
2022/12/23 00:23:59;;;;;;;12.57;8.10;;;;;;;5.43;100.00;99608.45;5082039;56;1138874;-71
2022/12/23 00:29:04;;;;;;;14.63;8.55;;;;;;;5.43;100.00;99604.52;5124457;56;1138954;-71
2022/12/23 00:34:12;;;;;;;10.83;8.90;;;;;;;5.41;100.00;99595.92;5101880;56;1147557;-72
2022/12/23 00:44:40;;;;;;;;;;;;;;;5.41;100.00;99602.47;5046596;57;1140778;-70
2022/12/23 00:49:45;;;;;;;21.50;11.63;;;;;;;5.41;100.00;99599.85;5079015;57;974043;-73
2022/12/23 00:54:51;;;;;;;17.83;10.60;;;;;;;5.42;100.00;99594.97;5042638;57;1138768;-73
2022/12/23 00:59:57;;;;;;;13.20;10.20;;;;;;;5.47;100.00;99599.90;5042334;57;1141094;-72
2022/12/23 01:10:26;;;;;;;18.77;11.23;;;;;;;5.42;100.00;99599.38;5131328;56;1140869;-71
2022/12/23 01:15:33;;;;;;;17.23;9.90;;;;;;;5.36;100.00;99598.02;5102879;56;1140814;-71
2022/12/23 01:20:40;;;;;;;16.23;10.43;;;;;;;5.36;100.00;99590.16;5042835;57;1138711;-75
2022/12/23 01:25:47;;;;;;;22.63;10.87;;;;;;;5.37;100.00;99583.13;5136325;56;1141115;-68
2022/12/23 01:30:52;;;;;;;25.53;16.90;;;;;;;5.39;100.00;99578.14;5127170;56;1141058;-72
2022/12/23 01:36:07;;;;;;;21.23;11.80;;;;;;;5.39;100.00;99581.23;5050241;56;1141013;-73
2022/12/23 01:46:27;;;;;;;18.30;11.57;;;;;;;5.27;100.00;99570.69;4975649;57;1140905;-72
2022/12/23 01:51:33;;;;;;;17.27;10.73;;;;;;;5.26;100.00;99577.34;5042372;57;1140955;-68
2022/12/23 01:56:41;;;;;;;15.77;10.73;;;;;;;5.26;100.00;99577.34;5047272;56;1140908;-73
2022/12/23 02:12:52;;;;;;;21.17;12.13;;;;;;;5.20;100.00;99569.42;5042276;57;1140876;-72
2022/12/23 02:18:22;;;;;;;19.43;11.27;;;;;;;5.16;100.00;99575.85;5037573;57;1140865;-73
2022/12/23 02:23:47;;;;;;;18.50;10.73;;;;;;;5.11;100.00;99562.70;5098259;56;1140835;-71
2022/12/23 02:29:30;;;;;;;15.77;12.03;;;;;;;5.09;100.00;99577.69;5126805;56;1140925;-72
2022/12/23 02:35:07;;;;;;;25.93;15.67;;;;;;;5.07;100.00;99582.19;5068577;56;1140913;-70
2022/12/23 02:40:39;;;;;;;24.57;14.78;;;;;;;5.04;100.00;99570.64;5037861;56;1145796;-73
2022/12/23 02:45:55;;;;;;;16.20;11.40;;;;;;;5.00;100.00;99577.87;4880512;57;1141018;-70
2022/12/23 02:51:02;;;;;;;15.03;11.30;;;;;;;4.99;100.00;99562.25;4904860;57;1140950;-72
2022/12/23 02:56:11;;;;;;;20.13;11.93;;;;;;;4.98;100.00;99564.50;4902178;58;1140936;-71
2022/12/23 03:01:18;;;;;;;20.12;14.30;;;;;;;5.04;100.00;99543.93;4917610;58;1140890;-73
2022/12/23 03:06:32;;;;;;;27.30;14.53;;;;;;;5.08;100.00;99549.33;4963681;57;1140999;-72
2022/12/23 03:11:54;;;;;;;21.77;14.13;;;;;;;5.03;100.00;99563.25;4838394;58;1138791;-72
2022/12/23 03:17:16;;;;;;;25.37;14.20;;;;;;;5.01;100.00;99573.47;4799311;58;1140955;-77
2022/12/23 03:22:38;;;;;;;29.18;15.35;;;;;;;4.95;100.00;99575.55;4775938;59;1140950;-70
2022/12/23 03:27:51;;;;;;;22.93;13.83;;;;;;;4.95;100.00;99565.08;4873169;58;1140812;-71
2022/12/23 03:33:22;;;;;;;31.90;15.58;;;;;;;4.95;100.00;99565.08;4824430;57;1141069;-74
2022/12/23 03:38:29;;;;;;;27.42;15.55;;;;;;;4.96;100.00;99569.84;4966516;57;1140828;-71
2022/12/23 03:43:51;;;;;;;35.13;18.00;;;;;;;4.95;100.00;99562.45;5002056;57;1140791;-75
2022/12/23 03:49:04;;;;;;;31.93;17.57;;;;;;;4.97;100.00;99563.66;5025710;56;1140883;-71
2022/12/23 03:54:17;;;;;;;31.48;17.25;;;;;;;4.97;100.00;99542.70;4983093;57;1141117;-74
2022/12/23 03:59:27;;;;;;;40.98;20.23;;;;;;;4.98;100.00;99527.82;4983163;57;1140805;-71
2022/12/23 04:05:11;;;;;;;41.73;21.83;;;;;;;5.00;100.00;99528.08;5011606;56;1140880;-71
2022/12/23 04:10:17;;;;;;;34.03;16.17;;;;;;;5.04;100.00;99526.89;5027454;56;1140893;-73
2022/12/23 04:15:26;;;;;;;44.83;21.90;;;;;;;5.05;100.00;99536.91;5021968;56;1140905;-72
2022/12/23 04:20:32;;;;;;;38.67;19.67;;;;;;;5.07;100.00;99525.84;4982349;58;1140861;-74
2022/12/23 04:25:38;;;;;;;37.13;19.10;;;;;;;5.10;100.00;99523.86;5033358;57;1140838;-73
2022/12/23 04:30:46;;;;;;;35.90;18.20;;;;;;;5.06;100.00;99509.28;5045185;57;1141028;-76
2022/12/23 04:35:52;;;;;;;42.63;21.80;;;;;;;5.12;100.00;99519.81;4991670;57;1141021;-71
2022/12/23 04:40:58;;;;;;;42.43;17.87;;;;;;;5.11;100.00;99513.73;4962806;58;1140925;-75
2022/12/23 04:46:04;;;;;;;45.20;23.55;;;;;;;5.13;100.00;99522.33;4963118;58;1141100;-73
2022/12/23 04:51:10;;;;;;;44.67;23.87;;;;;;;5.14;100.00;99507.45;4982932;57;1140971;-72
2022/12/23 04:56:16;;;;;;;36.37;19.50;;;;;;;5.15;100.00;99510.44;4980342;57;1151740;-75
2022/12/23 05:01:22;;;;;;;44.90;23.45;;;;;;;5.15;100.00;99507.81;4982465;56;1140887;-74
2022/12/23 05:06:28;;;;;;;43.30;21.03;;;;;;;5.14;100.00;99508.28;5004878;56;1140869;-71
2022/12/23 05:11:33;;;;;;;41.57;20.37;;;;;;;5.15;100.00;99515.20;4973440;57;1140974;-71
2022/12/23 05:16:40;;;;;;;34.90;17.73;;;;;;;5.19;100.00;99510.59;5040055;56;1140893;-74
2022/12/23 05:21:46;;;;;;;45.43;19.20;;;;;;;5.19;100.00;99506.18;4988938;57;1140854;-70
2022/12/23 05:26:52;;;;;;;50.50;23.13;;;;;;;5.24;100.00;99502.73;5036932;56;1140822;-69
2022/12/23 05:32:00;;;;;;;49.63;21.50;;;;;;;5.26;100.00;99503.94;4995483;56;1140821;-71
2022/12/23 05:37:06;;;;;;;33.23;17.97;;;;;;;5.28;100.00;99512.53;4989374;56;1141060;-74
2022/12/23 05:42:12;;;;;;;39.23;20.80;;;;;;;5.27;100.00;99519.56;5019988;56;1140945;-73
2022/12/23 05:47:19;;;;;;;42.83;21.07;;;;;;;5.29;100.00;99517.67;5048314;56;1141022;-70
2022/12/23 05:52:24;;;;;;;48.02;25.40;;;;;;;5.34;100.00;99506.02;5044068;57;1141025;-70
2022/12/23 05:57:31;;;;;;;41.15;21.52;;;;;;;5.39;100.00;99517.84;5028776;57;1141187;-74
2022/12/23 06:02:36;;;;;;;45.00;21.93;;;;;;;5.43;100.00;99506.66;4961793;57;1140937;-72
2022/12/23 06:07:43;;;;;;;103.87;40.50;;;;;;;5.51;100.00;99509.07;4982867;57;1140774;-71
2022/12/23 06:12:49;;;;;;;150.30;63.23;;;;;;;5.57;100.00;99499.94;5060241;57;1143139;-71
2022/12/23 06:17:55;;;;;;;188.73;80.90;;;;;;;5.63;100.00;99503.44;5040252;57;1142938;-72
2022/12/23 06:23:01;;;;;;;397.50;112.40;;;;;;;5.65;100.00;99504.97;5068398;56;1143037;-71
2022/12/23 06:28:07;;;;;;;122.53;51.00;;;;;;;5.75;100.00;99501.21;5098245;56;1145056;-74
2022/12/23 06:33:14;;;;;;;103.54;38.48;;;;;;;5.83;100.00;99508.02;5033096;57;1142819;-74
2022/12/23 06:38:20;;;;;;;106.27;41.48;;;;;;;5.92;100.00;99511.80;4964527;57;1142876;-76
2022/12/23 06:43:26;;;;;;;69.22;31.65;;;;;;;5.94;100.00;99526.48;4990511;57;1143096;-74
2022/12/23 06:48:32;;;;;;;40.40;21.48;;;;;;;5.89;100.00;99518.11;4944141;57;1141006;-68
2022/12/23 06:53:39;;;;;;;39.80;20.83;;;;;;;5.79;100.00;99520.19;5003635;57;1141056;-74
2022/12/23 06:58:44;;;;;;;41.43;21.83;;;;;;;5.77;100.00;99509.81;4968999;57;1140820;-74
2022/12/23 07:03:51;;;;;;;45.17;25.80;;;;;;;5.77;100.00;99508.50;4987329;57;1140706;-70
2022/12/23 07:08:58;;;;;;;31.97;19.67;;;;;;;5.78;100.00;99506.23;5000450;56;1140836;-73
2022/12/23 07:14:04;;;;;;;27.62;17.57;;;;;;;5.78;100.00;99504.92;5040001;56;1140878;-75
2022/12/23 07:19:11;;;;;;;26.57;15.77;;;;;;;5.75;100.00;99499.06;5050207;57;1140833;-73
2022/12/23 07:24:16;;;;;;;24.60;15.53;;;;;;;5.73;100.00;99503.11;5026716;56;1150603;-73
2022/12/23 07:29:22;;;;;;;21.30;13.80;;;;;;;5.72;100.00;99494.03;5004223;56;1140958;-74
2022/12/23 07:34:27;;;;;;;22.48;14.15;;;;;;;5.67;100.00;99483.88;4949713;57;1141061;-73
2022/12/23 07:39:34;;;;;;;26.85;12.03;;;;;;;5.61;100.00;99482.55;4920805;57;1140979;-72
2022/12/23 07:44:40;;;;;;;19.73;10.37;;;;;;;5.60;100.00;99476.11;4918175;58;1140753;-73
2022/12/23 07:49:46;;;;;;;14.40;10.00;;;;;;;5.60;100.00;99469.08;4945678;57;1141128;-70
2022/12/23 07:54:51;;;;;;;22.90;14.03;;;;;;;5.66;100.00;99469.08;5006965;55;1140976;-69
2022/12/23 07:59:59;;;;;;;37.43;20.57;;;;;;;5.69;100.00;99458.37;4953383;57;1140916;-72
2022/12/23 08:05:06;;;;;;;28.38;15.43;;;;;;;5.70;100.00;99448.71;4890581;57;1141035;-70
2022/12/23 08:10:12;;;;;;;24.67;12.63;;;;;;;5.71;100.00;99451.22;4979489;57;1140961;-74
2022/12/23 08:15:18;;;;;;;61.23;22.73;;;;;;;5.72;100.00;99448.96;5028958;56;1145973;-74
2022/12/23 08:20:24;;;;;;;37.87;18.03;;;;;;;5.73;100.00;99460.30;5033258;56;1140829;-68
2022/12/23 08:25:29;;;;;;;29.87;15.50;;;;;;;5.69;100.00;99464.92;5131594;56;1140833;-71
2022/12/23 08:30:35;;;;;;;23.93;14.00;;;;;;;5.71;100.00;99466.13;5126485;56;1138788;-73
2022/12/23 08:35:41;;;;;;;21.90;13.37;;;;;;;5.68;100.00;99466.34;5054544;56;1141175;-72
2022/12/23 08:40:47;;;;;;;20.30;12.27;;;;;;;5.64;100.00;99467.91;5061552;57;1140845;-73
2022/12/23 08:45:53;;;;;;;16.67;11.60;;;;;;;5.64;100.00;99457.89;5039803;57;1140881;-72
2022/12/23 08:51:06;;;;;;;16.90;12.60;;;;;;;5.58;100.00;99459.64;4989295;57;1141012;-71
2022/12/23 08:56:17;;;;;;;19.17;11.40;;;;;;;5.56;100.00;99457.13;4962749;57;1141025;-74
2022/12/23 09:01:26;;;;;;;14.80;11.00;;;;;;;5.49;100.00;99452.47;5012057;57;1139017;-72
2022/12/23 09:06:36;;;;;;;15.98;10.82;;;;;;;5.41;100.00;99445.15;5038824;57;1138827;-73
2022/12/23 09:11:42;;;;;;;18.80;11.67;;;;;;;5.38;100.00;99444.53;4961807;57;1141103;-67
2022/12/23 09:16:52;;;;;;;16.90;11.43;;;;;;;5.39;100.00;99443.11;4981645;57;1140750;-68
2022/12/23 09:21:58;;;;;;;18.13;11.40;;;;;;;5.38;100.00;99442.75;4971976;57;1140825;-69
2022/12/23 09:27:04;;;;;;;19.83;12.90;;;;;;;5.46;100.00;99439.58;5044264;57;1141112;-74
2022/12/23 09:32:10;;;;;;;20.60;13.30;;;;;;;5.56;100.00;99430.91;5051780;57;1141148;-72
2022/12/23 09:37:15;;;;;;;20.73;13.13;;;;;;;5.66;100.00;99424.48;4961912;58;1140907;-72
2022/12/23 09:42:59;;;;;;;19.70;12.57;;;;;;;5.67;100.00;99416.98;4991252;57;1141073;-70
2022/12/23 09:48:08;;;;;;;17.02;11.60;;;;;;;5.68;100.00;99414.72;5027409;56;1140972;-75
2022/12/23 09:53:18;;;;;;;21.57;11.60;;;;;;;5.67;100.00;99413.05;5002602;57;1140898;-73
2022/12/23 09:58:31;;;;;;;22.13;12.40;;;;;;;5.68;100.00;99409.95;5032361;56;1140890;-72
2022/12/23 10:03:39;;;;;;;;;;;;;;;5.71;100.00;99403.17;4991295;56;1140724;-72
2022/12/23 10:08:48;;;;;;;22.33;14.07;;;;;;;5.75;100.00;99409.39;4962507;56;973986;-73
2022/12/23 10:14:17;;;;;;;20.37;13.23;;;;;;;5.70;100.00;99419.85;4968788;57;1139042;-71
2022/12/23 10:19:27;;;;;;;19.27;12.95;;;;;;;5.67;100.00;99407.80;4985687;57;1146408;-70
2022/12/23 10:24:45;;;;;;;17.75;12.30;;;;;;;5.71;100.00;99414.97;4985260;57;1140855;-73
2022/12/23 10:29:51;;;;;;;19.83;13.70;;;;;;;5.75;100.00;99415.95;4997536;57;1140899;-71
2022/12/23 10:35:21;;;;;;;30.77;18.27;;;;;;;5.80;100.00;99417.76;4985743;57;1140780;-70
2022/12/23 10:40:54;;;;;;;149.57;43.35;;;;;;;5.83;100.00;99425.38;5019350;55;1141028;-69
2022/12/23 10:46:43;;;;;;;164.40;45.97;;;;;;;5.85;100.00;99426.57;4984901;56;1143030;-72
2022/12/23 10:51:54;;;;;;;68.00;30.23;;;;;;;5.84;100.00;99435.39;4990259;56;1143169;-71
2022/12/23 10:57:01;;;;;;;343.90;99.90;;;;;;;5.83;100.00;99437.66;5056941;56;1138825;-70
2022/12/23 11:02:29;;;;;;;751.90;219.15;;;;;;;5.88;100.00;99435.09;4983026;56;1143168;-74
2022/12/23 11:07:37;;;;;;;148.13;59.10;;;;;;;5.95;100.00;99422.35;5064304;56;1144964;-71
2022/12/23 11:12:49;;;;;;;38.83;21.05;;;;;;;6.00;100.00;99435.94;5069431;56;1142992;-71
2022/12/23 11:18:13;;;;;;;46.40;22.80;;;;;;;5.98;100.00;99441.30;4968791;56;1140840;-75
2022/12/23 11:23:29;;;;;;;39.16;20.50;;;;;;;5.99;100.00;99443.45;5074096;56;1140699;-72
2022/12/23 11:28:40;;;;;;;43.70;21.63;;;;;;;5.99;100.00;99436.89;5074612;56;1141085;-75
2022/12/23 11:33:53;;;;;;;25.80;13.83;;;;;;;6.01;100.00;99429.73;5032410;56;1141177;-71
2022/12/23 11:39:13;;;;;;;;;;;;;;;6.05;100.00;99421.16;5052352;56;1140860;-75
2022/12/23 11:44:36;;;;;;;30.37;16.93;;;;;;;6.06;100.00;99433.34;4995056;56;974024;-70
2022/12/23 11:49:50;;;;;;;88.33;36.33;;;;;;;6.04;100.00;99425.58;4897739;57;1138873;-71
2022/12/23 11:55:02;;;;;;;31.40;15.27;;;;;;;6.06;100.00;99438.59;5008402;56;1140805;-75
2022/12/23 12:00:33;;;;;;;18.07;10.30;;;;;;;6.07;100.00;99452.91;5041697;56;1140832;-75
2022/12/23 12:05:47;;;;;;;22.80;12.03;;;;;;;5.99;100.00;99444.77;4990521;56;1141161;-72
2022/12/23 12:10:57;;;;;;;76.37;13.10;;;;;;;5.97;100.00;99454.53;4970763;56;1140997;-74
2022/12/23 12:16:38;;;;;;;19.70;11.07;;;;;;;5.96;100.00;99475.17;5051499;56;1140850;-75
2022/12/23 12:21:46;;;;;;;26.27;13.93;;;;;;;5.95;100.00;99491.42;5067021;56;1140881;-71
2022/12/23 12:26:57;;;;;;;35.40;18.23;;;;;;;5.96;100.00;99494.85;5080863;56;1140838;-76
2022/12/23 12:32:05;;;;;;;41.60;20.73;;;;;;;5.98;100.00;99500.83;4968716;56;1140943;-73
2022/12/23 12:37:34;;;;;;;34.05;19.48;;;;;;;6.02;100.00;99505.37;4977026;56;1140903;-68
2022/12/23 12:42:46;;;;;;;54.53;26.47;;;;;;;6.07;100.00;99504.09;5080940;56;1141048;-71
2022/12/23 12:48:37;;;;;;;43.20;24.53;;;;;;;6.16;100.00;99503.86;4972860;56;1140989;-73
2022/12/23 12:53:57;;;;;;;43.53;23.07;;;;;;;6.21;100.00;99509.14;4942185;57;1140852;-75
2022/12/23 12:59:04;;;;;;;46.33;23.90;;;;;;;6.25;100.00;99506.65;4915731;58;1141040;-74
2022/12/23 13:04:39;;;;;;;33.50;18.70;;;;;;;6.28;100.00;99516.05;4875555;58;1141230;-72
2022/12/23 13:10:00;;;;;;;38.93;19.80;;;;;;;6.22;100.00;99505.56;5015792;57;1140900;-75
2022/12/23 13:15:27;;;;;;;31.70;18.77;;;;;;;6.18;100.00;99508.05;5040063;57;1140952;-72
2022/12/23 13:20:52;;;;;;;39.30;20.10;;;;;;;6.24;100.00;99512.84;5075857;56;1140764;-73
2022/12/23 13:26:20;;;;;;;38.87;22.53;;;;;;;6.26;100.00;99514.86;5043845;56;1141199;-77
2022/12/23 13:31:42;;;;;;;31.33;18.62;;;;;;;6.29;100.00;99517.73;5060404;56;1140974;-72
2022/12/23 13:37:12;;;;;;;27.17;14.73;;;;;;;6.22;100.00;99529.19;4971267;57;1141142;-74
2022/12/23 13:42:25;;;;;;;29.87;15.93;;;;;;;6.17;100.00;99533.94;4977809;56;1141332;-71
2022/12/23 13:47:58;;;;;;;24.32;13.78;;;;;;;6.16;100.00;99534.05;4971849;56;1140908;-71
2022/12/23 13:53:19;;;;;;;;;;;;;;;6.18;100.00;99534.78;4982010;57;1141335;-78
2022/12/23 13:58:30;;;;;;;28.30;14.00;;;;;;;6.18;100.00;99536.09;4999290;57;977332;-72
2022/12/23 14:03:40;;;;;;;22.27;10.53;;;;;;;6.18;100.00;99537.41;5039762;56;1138853;-76
2022/12/23 14:08:46;;;;;;;23.30;12.10;;;;;;;6.21;100.00;99538.49;5040204;56;1140815;-78
2022/12/23 14:13:56;;;;;;;16.73;10.33;;;;;;;6.24;100.00;99546.98;5065268;56;1140926;-78
2022/12/23 14:19:46;;;;;;;24.13;12.13;;;;;;;6.25;100.00;99539.95;5045170;56;1140906;-76
2022/12/23 14:25:26;;;;;;;88.27;46.53;;;;;;;6.22;100.00;99549.36;5045334;56;1140950;-76
2022/12/23 14:30:47;;;;;;;45.07;27.60;;;;;;;6.17;100.00;99567.23;5045126;57;1141021;-72
2022/12/23 14:35:55;;;;;;;63.80;34.23;;;;;;;6.17;100.00;99567.23;5093909;56;1140780;-70
2022/12/23 14:41:24;;;;;;;59.73;41.33;;;;;;;6.23;100.00;99579.91;5126706;56;1140885;-77
2022/12/23 14:46:40;;;;;;;107.85;70.83;;;;;;;6.22;100.00;99585.64;5126653;56;1140753;-73
2022/12/23 14:51:49;;;;;;;110.47;62.93;;;;;;;6.20;100.00;99592.79;5076706;56;1143092;-72
2022/12/23 14:57:03;;;;;;;51.37;21.90;;;;;;;6.14;100.00;99590.61;5019996;57;1143094;-74
2022/12/23 15:02:31;;;;;;;32.67;16.83;;;;;;;6.07;100.00;99593.81;5011884;56;1140811;-71
2022/12/23 15:07:43;;;;;;;51.43;31.73;;;;;;;6.06;100.00;99608.72;5011896;57;1140791;-69
2022/12/23 15:12:52;;;;;;;35.17;18.40;;;;;;;6.05;100.00;99605.73;5031484;57;1140879;-72
2022/12/23 15:18:11;;;;;;;62.50;32.33;;;;;;;6.04;100.00;99607.16;5011698;57;1140760;-74
2022/12/23 15:23:18;;;;;;;36.40;22.00;;;;;;;6.02;100.00;99605.12;5064046;56;1140811;-74
2022/12/23 15:28:31;;;;;;;54.15;28.90;;;;;;;6.02;100.00;99602.02;5133085;56;1140959;-72
2022/12/23 15:33:37;;;;;;;42.03;22.87;;;;;;;6.03;100.00;99602.86;5082299;56;1140994;-73
2022/12/23 15:38:43;;;;;;;42.13;23.10;;;;;;;5.99;100.00;99605.70;4967510;57;1140871;-72
2022/12/23 15:43:49;;;;;;;55.17;29.43;;;;;;;5.98;100.00;99600.55;5032668;56;1138713;-68
2022/12/23 15:48:55;;;;;;;61.57;31.83;;;;;;;5.98;100.00;99604.50;4949150;56;1140833;-75
2022/12/23 15:54:04;;;;;;;68.43;37.27;;;;;;;6.00;100.00;99590.79;5044856;57;1140781;-74
2022/12/23 15:59:14;;;;;;;55.17;30.43;;;;;;;6.03;100.00;99600.23;5021357;56;1141009;-76
2022/12/23 16:04:25;;;;;;;31.87;18.87;;;;;;;5.97;100.00;99591.01;5048188;55;1140942;-70
2022/12/23 16:09:35;;;;;;;86.20;50.33;;;;;;;5.93;100.00;99599.61;5083506;55;1141104;-74
2022/12/23 16:14:43;;;;;;;65.17;38.55;;;;;;;5.91;100.00;99596.72;5114741;55;1141077;-74
2022/12/23 16:19:55;;;;;;;144.57;61.63;;;;;;;5.88;100.00;99600.84;5008743;56;1140741;-75
2022/12/23 16:25:07;;;;;;;103.03;53.73;;;;;;;5.88;100.00;99607.41;5156343;55;1142933;-71
2022/12/23 16:30:23;;;;;;;113.17;52.15;;;;;;;5.85;100.00;99613.70;5069824;55;1143045;-69
2022/12/23 16:35:38;;;;;;;125.00;57.07;;;;;;;5.80;100.00;99617.63;5189113;55;1140847;-72
2022/12/23 16:40:49;;;;;;;93.30;45.87;;;;;;;5.75;100.00;99610.09;5185700;55;1142931;-71
2022/12/23 16:45:58;;;;;;;85.17;43.23;;;;;;;5.73;100.00;99601.95;5186330;55;1140864;-73
2022/12/23 16:51:08;;;;;;;95.90;41.93;;;;;;;5.72;100.00;99601.12;5127192;55;1140921;-70
2022/12/23 16:56:17;;;;;;;129.30;62.10;;;;;;;5.72;100.00;99593.25;5088092;56;1140715;-70
2022/12/23 17:01:31;;;;;;;213.83;93.83;;;;;;;5.71;100.00;99596.82;5102852;55;1142852;-72
2022/12/23 17:06:39;;;;;;;116.53;58.48;;;;;;;5.73;100.00;99599.34;5110590;55;1143002;-71
2022/12/23 17:11:52;;;;;;;107.20;58.47;;;;;;;5.71;100.00;99623.52;5097543;56;1143068;-73
2022/12/23 17:16:58;;;;;;;75.17;36.63;;;;;;;5.67;100.00;99629.45;5075878;55;1142919;-70
2022/12/23 17:22:04;;;;;;;73.97;34.83;;;;;;;5.63;100.00;99630.17;5037662;55;1140831;-72
2022/12/23 17:27:19;;;;;;;60.73;31.33;;;;;;;5.62;100.00;99628.97;5082369;56;1140854;-82
2022/12/23 17:32:25;;;;;;;74.47;36.17;;;;;;;5.62;100.00;99629.81;5052300;55;1140974;-77
2022/12/23 17:37:31;;;;;;;63.10;30.10;;;;;;;5.63;100.00;99629.34;5081685;55;1140948;-83
2022/12/23 17:42:37;;;;;;;86.82;40.34;;;;;;;5.62;100.00;99638.16;5084012;56;1140881;-78
2022/12/23 17:47:43;;;;;;;68.60;34.35;;;;;;;5.60;100.00;99638.73;5098384;56;1140810;-83
2022/12/23 17:52:51;;;;;;;94.20;45.93;;;;;;;5.63;100.00;99645.08;5097965;56;1141054;-78
2022/12/23 17:57:57;;;;;;;78.67;43.58;;;;;;;5.66;100.00;99651.39;5113515;55;1140937;-74
2022/12/23 18:03:06;;;;;;;54.67;27.90;;;;;;;5.67;100.00;99645.20;5077924;56;1141024;-77
2022/12/23 18:08:11;;;;;;;42.90;24.67;;;;;;;5.67;100.00;99651.75;5045520;56;1140959;-77
2022/12/23 18:13:19;;;;;;;64.10;31.37;;;;;;;5.66;100.00;99651.39;5033719;56;1141069;-74
2022/12/23 18:18:26;;;;;;;65.33;30.73;;;;;;;5.67;100.00;99654.38;5059827;56;1140855;-74
2022/12/23 18:23:36;;;;;;;58.53;26.83;;;;;;;5.66;100.00;99634.34;5050855;56;1140887;-80
2022/12/23 18:28:43;;;;;;;56.47;27.50;;;;;;;5.69;100.00;99631.50;5054940;55;1142252;-80
2022/12/23 18:33:51;;;;;;;47.30;27.20;;;;;;;5.74;100.00;99633.33;5064673;56;1140966;-79
2022/12/23 18:38:57;;;;;;;51.07;27.00;;;;;;;5.78;100.00;99641.83;5030496;56;1141089;-70
2022/12/23 18:44:03;;;;;;;58.52;32.78;;;;;;;5.79;100.00;99629.08;5031722;56;1140771;-74
2022/12/23 18:49:08;;;;;;;86.13;54.10;;;;;;;5.86;100.00;99635.54;5058712;56;1140828;-70
2022/12/23 18:54:18;;;;;;;80.87;48.50;;;;;;;5.87;100.00;99630.19;4949682;57;1140917;-72
2022/12/23 18:59:25;;;;;;;71.47;40.70;;;;;;;5.83;100.00;99635.75;4930864;57;1141085;-73
2022/12/23 19:04:31;;;;;;;55.17;30.90;;;;;;;5.78;100.00;99630.02;4970335;56;1139023;-74
2022/12/23 19:09:38;;;;;;;53.40;28.90;;;;;;;5.80;100.00;99611.08;5035371;56;1140902;-74
2022/12/23 19:14:43;;;;;;;47.45;26.25;;;;;;;5.86;100.00;99620.63;4962911;57;1140831;-79
2022/12/23 19:19:49;;;;;;;194.93;95.87;;;;;;;5.90;100.00;99613.42;4962449;57;1141137;-82
2022/12/23 19:24:55;;;;;;;183.87;86.53;;;;;;;5.95;100.00;99609.52;4977271;57;1143465;-79
2022/12/23 19:30:02;;;;;;;169.37;74.33;;;;;;;6.07;100.00;99599.06;5108450;56;1143065;-81
2022/12/23 19:35:11;;;;;;;81.15;41.60;;;;;;;6.08;100.00;99604.20;5001110;56;1143117;-74
2022/12/23 19:40:17;;;;;;;85.90;37.67;;;;;;;6.07;100.00;99600.38;4981939;57;1140886;-76
2022/12/23 19:45:23;;;;;;;392.47;180.77;;;;;;;6.14;100.00;99605.52;4962989;57;1140739;-73
2022/12/23 19:50:30;;;;;;;147.87;63.77;;;;;;;6.17;100.00;99607.92;5008232;57;1145125;-75
2022/12/23 19:55:35;;;;;;;109.22;47.43;;;;;;;6.09;100.00;99611.60;5053659;57;1143002;-76
2022/12/23 20:00:41;;;;;;;168.00;80.90;;;;;;;6.00;100.00;99607.84;5037443;56;1140883;-72
2022/12/23 20:05:51;;;;;;;228.70;108.00;;;;;;;5.99;100.00;99603.07;5028425;56;1141104;-81
2022/12/23 20:11:08;;;;;;;205.43;89.07;;;;;;;6.00;100.00;99613.09;5059597;56;1145231;-76
2022/12/23 20:16:14;;;;;;;90.97;34.50;;;;;;;5.98;100.00;99617.62;5064354;56;1142805;-72
2022/12/23 20:21:20;;;;;;;75.27;32.97;;;;;;;5.93;100.00;99628.95;5043034;57;1140694;-78
2022/12/23 20:26:27;;;;;;;61.50;31.00;;;;;;;5.89;100.00;99634.88;5042861;56;1140827;-78
2022/12/23 20:31:36;;;;;;;77.72;32.42;;;;;;;5.90;100.00;99624.75;5064823;56;1150394;-74
2022/12/23 20:36:42;;;;;;;114.82;48.58;;;;;;;5.96;100.00;99636.57;5098615;56;1140879;-72
2022/12/23 20:41:47;;;;;;;104.70;51.23;;;;;;;5.99;100.00;99638.98;5127064;56;1142986;-75
2022/12/23 20:46:53;;;;;;;183.30;78.93;;;;;;;6.02;100.00;99636.61;5147277;56;1142913;-67
2022/12/23 20:51:59;;;;;;;215.40;80.57;;;;;;;6.12;100.00;99633.67;5054118;56;1143047;-76
2022/12/23 20:57:05;;;;;;;117.00;48.50;;;;;;;6.21;100.00;99639.09;5043074;57;1143204;-80
2022/12/23 21:02:14;;;;;;;146.93;63.97;;;;;;;6.24;100.00;99640.67;5062598;57;1142899;-70
2022/12/23 21:07:19;;;;;;;170.13;59.50;;;;;;;6.26;100.00;99633.02;5078723;56;1142968;-78
2022/12/23 21:12:25;;;;;;;90.37;37.77;;;;;;;6.25;100.00;99627.43;5048690;56;1143034;-76
2022/12/23 21:17:33;;;;;;;147.17;53.70;;;;;;;6.21;100.00;99630.39;5083562;56;1140969;-79
2022/12/23 21:22:38;;;;;;;197.07;56.48;;;;;;;6.18;100.00;99641.95;5060736;56;1142882;-75
2022/12/23 21:27:44;;;;;;;157.57;49.05;;;;;;;6.20;100.00;99631.33;5127345;56;1142894;-77
2022/12/23 21:32:49;;;;;;;112.63;42.00;;;;;;;6.18;100.00;99631.92;5129904;56;1143145;-85
2022/12/23 21:37:55;;;;;;;450.27;121.07;;;;;;;6.15;100.00;99630.82;5059318;56;1142919;-73
2022/12/23 21:43:02;;;;;;;305.87;93.83;;;;;;;6.16;100.00;99637.75;5059501;56;1145008;-76
2022/12/23 21:48:07;;;;;;;217.20;70.65;;;;;;;6.14;100.00;99629.14;5052689;56;1143015;-77
2022/12/23 21:53:13;;;;;;;133.03;50.97;;;;;;;6.13;100.00;99630.93;5079093;56;1142789;-77
2022/12/23 21:58:19;;;;;;;126.67;47.80;;;;;;;6.14;100.00;99632.61;5042921;56;1143165;-77
2022/12/23 22:03:25;;;;;;;73.77;27.67;;;;;;;6.14;100.00;99625.20;5043325;56;1142942;-77
2022/12/23 22:08:32;;;;;;;95.97;29.63;;;;;;;6.14;100.00;99626.05;5074322;56;1140953;-81
2022/12/23 22:13:38;;;;;;;116.85;36.28;;;;;;;6.15;100.00;99624.26;5059333;56;1141090;-80
2022/12/23 22:18:45;;;;;;;80.35;30.52;;;;;;;6.13;100.00;99618.28;5106156;56;1143117;-80
2022/12/23 22:23:53;;;;;;;72.20;30.33;;;;;;;6.15;100.00;99622.47;5141947;56;1140770;-87
2022/12/23 22:29:03;;;;;;;89.60;34.90;;;;;;;6.20;100.00;99626.08;5121967;56;1140999;-83
2022/12/23 22:34:14;;;;;;;109.63;31.53;;;;;;;6.26;100.00;99628.27;5076567;56;1140952;-82
2022/12/23 22:39:21;;;;;;;105.10;32.57;;;;;;;6.31;100.00;99619.55;5037315;57;1142957;-74
2022/12/23 22:44:27;;;;;;;68.87;28.43;;;;;;;6.27;100.00;99613.69;5056703;57;1143014;-76
2022/12/23 22:49:33;;;;;;;54.90;24.57;;;;;;;6.22;100.00;99613.20;5061317;56;1141017;-79
2022/12/23 22:54:39;;;;;;;52.38;22.05;;;;;;;6.21;100.00;99611.53;5101887;56;1141074;-76
2022/12/23 22:59:45;;;;;;;102.97;28.47;;;;;;;6.16;100.00;99607.56;5122243;56;1140766;-77
2022/12/23 23:04:52;;;;;;;128.07;35.57;;;;;;;6.16;100.00;99613.65;5101915;56;1142934;-75
2022/12/23 23:09:57;;;;;;;121.17;41.43;;;;;;;6.12;100.00;99605.63;5074145;56;1142992;-75
2022/12/23 23:15:04;;;;;;;134.43;42.10;;;;;;;6.07;100.00;99610.41;5074110;56;1140892;-74
2022/12/23 23:20:10;;;;;;;110.13;40.83;;;;;;;6.00;100.00;99599.50;5093663;56;1143037;-78
2022/12/23 23:25:16;;;;;;;108.10;45.40;;;;;;;5.94;100.00;99604.37;5071985;56;1143119;-74
2022/12/23 23:30:21;;;;;;;84.97;32.87;;;;;;;5.92;100.00;99603.65;5070990;56;1143138;-73
2022/12/23 23:35:28;;;;;;;80.87;29.30;;;;;;;5.96;100.00;99598.04;5088203;56;1140797;-76
2022/12/23 23:40:34;;;;;;;94.30;28.57;;;;;;;5.97;100.00;99597.57;5029682;56;1141066;-79
2022/12/23 23:45:41;;;;;;;161.77;40.03;;;;;;;5.97;100.00;99595.78;5056571;56;1140806;-76
2022/12/23 23:50:47;;;;;;;103.38;29.98;;;;;;;5.97;100.00;99602.81;5124088;56;1143015;-74